D/T METAR WX W/DIR W/SPE G/SPE TEMP DEWP
9/12/19 11:50 EGPD 091150Z AUTO 30013KT 9999 FEW027/// 04/01 Q1010 WNW (300°) 15.0mph 4°C 1°C
9/12/19 11:20 EGPD 091120Z 31017KT 9999 NSC 04/01 Q1009 NOSIG NW (310°) 19.6mph 4°C 1°C
9/12/19 10:50 EGPD 091050Z 31014KT 9999 FEW010 04/00 Q1009 NOSIG NW (310°) 16.1mph 4°C 0°C
9/12/19 09:50 EGPD 090950Z AUTO 30011KT 9999 NCD 04/M00 Q1007 TEMPO SHRA WNW (300°) 12.7mph 4°C 0°C
9/12/19 09:20 EGPD 090920Z AUTO 31016KT 9999 //////TCU 04/00 Q1006 NOSIG NW (310°) 18.4mph 4°C 0°C
9/12/19 08:20 EGPD 090820Z 32014KT 9999 VCSH FEW033 SCT048 04/00 Q1004 TEMPO SHRA VCSH NW (320°) 16.1mph 4°C 0°C
9/12/19 07:50 EGPD 090750Z AUTO 31017KT 9999 NCD 04/00 Q1002 TEMPO SHRA NW (310°) 19.6mph 4°C 0°C
9/12/19 07:20 EGPD 090720Z AUTO 32016KT 9999 NCD 04/01 Q1001 TEMPO SHRA NW (320°) 18.4mph 4°C 1°C
9/12/19 06:50 EGPD 090650Z 33022KT 9999 -RA BKN032 BKN041 04/01 Q1000 TEMPO 4000 SHRA -RA NNW (330°) 25.3mph 4°C 1°C
9/12/19 06:20 EGPD 090620Z AUTO 33016KT 9000 -RA FEW022/// BKN032/// BKN041/// //////TCU 03/01 Q0999 RERA TEMPO 4000 SHRA -RA NNW (330°) 18.4mph 3°C 1°C
9/12/19 05:50 EGPD 090550Z AUTO 32019KT 9999 //////TCU 04/01 Q0997 TEMPO 4000 SHRA NW (320°) 21.9mph 4°C 1°C
9/12/19 05:20 EGPD 090520Z AUTO 34029G45KT 5000 -RA SCT020/// BKN031/// BKN041/// //////TCU 04/01 Q0996 TEMPO SHRA -RA NNW (340°) 33.4mph 51.8mph 4°C 1°C
9/12/19 04:50 EGPD 090450Z AUTO 33020KT 9999 -RA SCT035 05/01 Q0995 TEMPO SHRA -RA NNW (330°) 23.0mph 5°C 1°C
9/12/19 04:20 EGPD 090420Z AUTO 34018G29KT 9999 SCT029 SCT036 BKN048 05/02 Q0993 TEMPO SHRA NNW (340°) 20.7mph 33.4mph 5°C 2°C
9/12/19 03:50 EGPD 090350Z AUTO 34020KT 9999 SCT034 05/02 Q0991 TEMPO SHRA NNW (340°) 23.0mph 5°C 2°C
9/12/19 03:20 EGPD 090320Z AUTO 33021KT 9999 SCT026/// BKN038/// //////TCU 05/02 Q0990 RERA NOSIG NNW (330°) 24.2mph 5°C 2°C
9/12/19 02:50 EGPD 090250Z AUTO 34019G29KT 9999 -RA SCT028 BKN035 BKN044 06/03 Q0988 TEMPO 4000 SHRA BKN014 -RA NNW (340°) 21.9mph 33.4mph 6°C 3°C
9/12/19 02:20 EGPD 090220Z AUTO 34022G35KT 9999 -RA BKN028/// BKN043/// //////CB 06/03 Q0987 TEMPO SHRA -RA NNW (340°) 25.3mph 40.3mph 6°C 3°C
9/12/19 01:50 EGPD 090150Z AUTO 35029G43KT 9000 -RA SCT019/// BKN029/// BKN036/// //////CB 05/03 Q0985 RERA TEMPO SHRA -RA N (350°) 33.4mph 49.5mph 5°C 3°C
9/12/19 01:20 EGPD 090120Z AUTO 34028G45KT 4700 RA SCT014/// BKN019/// OVC036/// //////CB 05/03 Q0983 TEMPO 6000 BKN014 RA NNW (340°) 32.2mph 51.8mph 5°C 3°C
9/12/19 00:50 EGPD 090050Z AUTO 32030G42KT 4900 RA BKN012/// OVC018/// //////CB 05/03 Q0981 RERA TEMPO 6000 RA NW (320°) 34.5mph 48.3mph 5°C 3°C
9/12/19 00:20 EGPD 090020Z AUTO 30020G30KT 4500 RA FEW011/// BKN016/// OVC030/// //////TCU 05/03 Q0980 TEMPO 9999 NSW RA WNW (300°) 23.0mph 34.5mph 5°C 3°C
8/12/19 23:50 EGPD 082350Z AUTO 29019G29KT 9999 -RA SCT019/// BKN033/// //////TCU 05/03 Q0979 NOSIG -RA WNW (290°) 21.9mph 33.4mph 5°C 3°C
8/12/19 23:20 EGPD 082320Z AUTO 28019G29KT 9999 FEW025/// //////TCU 06/02 Q0978 TEMPO SHRA W (280°) 21.9mph 33.4mph 6°C 2°C
8/12/19 22:50 EGPD 082250Z AUTO 28015KT 9999 FEW024 05/02 Q0978 NOSIG W (280°) 17.3mph 5°C 2°C
8/12/19 22:20 EGPD 082220Z AUTO 27011KT 9999 NCD 05/01 Q0977 NOSIG W (270°) 12.7mph 5°C 1°C
8/12/19 21:50 EGPD 082150Z AUTO 25008KT 210V270 9999 NCD 04/01 Q0977 NOSIG WSW (250°) 9.2mph 4°C 1°C
8/12/19 21:20 EGPD 082120Z AUTO 27006KT 230V300 9999 NCD 03/00 Q0976 NOSIG W (270°) 6.9mph 3°C 0°C
8/12/19 20:50 EGPD 082050Z AUTO 24006KT 9999 NCD 03/00 Q0976 NOSIG WSW (240°) 6.9mph 3°C 0°C
8/12/19 20:20 EGPD 082020Z AUTO 24006KT 9999 NCD 04/01 Q0976 NOSIG WSW (240°) 6.9mph 4°C 1°C
8/12/19 19:50 EGPD 081950Z AUTO 24007KT 9999 NCD 04/01 Q0975 NOSIG WSW (240°) 8.1mph 4°C 1°C
8/12/19 19:20 EGPD 081920Z AUTO 23009KT 9999 NCD 04/01 Q0974 NOSIG SW (230°) 10.4mph 4°C 1°C
8/12/19 18:50 EGPD 081850Z AUTO 23011KT 9999 NCD 05/02 Q0974 SW (230°) 12.7mph 5°C 2°C
8/12/19 18:20 EGPD 081820Z AUTO 22010KT 9999 NCD 05/02 Q0974 NOSIG SW (220°) 11.5mph 5°C 2°C
8/12/19 17:50 EGPD 081750Z AUTO 22013KT 9999 NCD 05/01 Q0974 NOSIG SW (220°) 15.0mph 5°C 1°C
8/12/19 17:20 EGPD 081720Z AUTO 23011KT 9999 NCD 05/01 Q0974 NOSIG SW (230°) 12.7mph 5°C 1°C
8/12/19 16:50 EGPD 081650Z AUTO 23013KT 9999 NCD 05/02 Q0974 NOSIG SW (230°) 15.0mph 5°C 2°C
8/12/19 15:50 EGPD 081550Z AUTO 23012KT 9999 NCD 05/01 Q0974 NOSIG SW (230°) 13.8mph 5°C 1°C
8/12/19 15:20 EGPD 081520Z AUTO 23017KT 9999 NCD 05/01 Q0974 NOSIG SW (230°) 19.6mph 5°C 1°C
8/12/19 14:50 EGPD 081450Z AUTO 22016KT 9999 NCD 05/01 Q0974 NOSIG SW (220°) 18.4mph 5°C 1°C
8/12/19 14:20 EGPD 081420Z AUTO 22019KT 9999 NCD 05/01 Q0974 NOSIG SW (220°) 21.9mph 5°C 1°C
8/12/19 13:50 EGPD 081350Z AUTO 22016KT 9999 NCD 06/01 Q0975 NOSIG SW (220°) 18.4mph 6°C 1°C
8/12/19 13:20 EGPD 081320Z AUTO 22016KT 9999 NCD 06/01 Q0975 NOSIG SW (220°) 18.4mph 6°C 1°C
8/12/19 12:50 EGPD 081250Z AUTO 22017KT 9999 NCD 06/01 Q0975 NOSIG SW (220°) 19.6mph 6°C 1°C
8/12/19 12:20 EGPD 081220Z AUTO 24012KT 9999 NCD 06/01 Q0976 NOSIG WSW (240°) 13.8mph 6°C 1°C
8/12/19 11:50 EGPD 081150Z AUTO 22016KT 9999 NCD 06/02 Q0976 NOSIG SW (220°) 18.4mph 6°C 2°C
8/12/19 11:20 EGPD 081120Z AUTO 22017KT 9999 NCD 06/01 Q0976 NOSIG SW (220°) 19.6mph 6°C 1°C
8/12/19 10:50 EGPD 081050Z AUTO 22013KT 9999 NCD 06/01 Q0977 NOSIG SW (220°) 15.0mph 6°C 1°C